createdAt,value
2018-11-14T00:02:02.729Z,17.63
2018-11-14T00:04:30.970Z,16.10
2018-11-14T00:06:59.233Z,23.57
2018-11-14T00:09:27.524Z,18.20
2018-11-14T00:11:55.812Z,17.83
2018-11-14T00:14:24.084Z,15.97
2018-11-14T00:16:52.339Z,16.40
2018-11-14T00:19:20.652Z,13.43
2018-11-14T00:21:48.829Z,15.97
2018-11-14T00:24:17.110Z,23.53
2018-11-14T00:26:45.421Z,22.57
2018-11-14T00:29:13.614Z,19.43
2018-11-14T00:31:41.827Z,22.20
2018-11-14T00:34:10.068Z,21.73
2018-11-14T00:36:38.302Z,26.60
2018-11-14T00:39:08.277Z,17.70
2018-11-14T00:41:36.616Z,19.27
2018-11-14T00:44:05.701Z,19.00
2018-11-14T00:46:33.980Z,20.17
2018-11-14T00:49:02.236Z,22.37
2018-11-14T00:51:30.765Z,24.67
2018-11-14T00:53:59.048Z,22.93
2018-11-14T00:56:27.328Z,22.57
2018-11-14T00:58:55.900Z,19.67
2018-11-14T01:01:24.252Z,23.57
2018-11-14T01:03:52.475Z,20.33
2018-11-14T01:06:20.692Z,19.33
2018-11-14T01:08:48.921Z,16.53
2018-11-14T01:11:17.192Z,24.93
2018-11-14T01:13:45.444Z,19.67
2018-11-14T01:16:13.708Z,21.33
2018-11-14T01:18:41.908Z,24.27
2018-11-14T01:21:10.146Z,22.23
2018-11-14T01:23:38.360Z,23.77
2018-11-14T01:26:06.638Z,19.33
2018-11-14T01:28:34.845Z,22.70
2018-11-14T01:31:03.081Z,15.67
2018-11-14T01:33:31.319Z,26.80
2018-11-14T01:35:59.564Z,21.43
2018-11-14T01:38:27.833Z,22.73
2018-11-14T01:40:56.049Z,25.30
2018-11-14T01:43:24.713Z,23.00
2018-11-14T01:45:52.952Z,22.10
2018-11-14T01:48:21.202Z,24.87
2018-11-14T01:50:49.453Z,21.93
2018-11-14T01:53:17.708Z,29.50
2018-11-14T01:55:45.936Z,26.93
2018-11-14T01:58:14.180Z,21.03
2018-11-14T02:00:42.416Z,22.73
2018-11-14T02:03:10.667Z,28.87
2018-11-14T02:05:38.875Z,24.53
2018-11-14T02:08:07.109Z,23.33
2018-11-14T02:10:35.368Z,25.33
2018-11-14T02:13:03.628Z,22.10
2018-11-14T02:15:31.889Z,24.47
2018-11-14T02:18:00.133Z,23.17
2018-11-14T02:20:28.359Z,25.97
2018-11-14T02:22:56.609Z,22.93
2018-11-14T02:25:24.844Z,27.33
2018-11-14T02:27:53.121Z,28.77
2018-11-14T02:30:22.592Z,25.33
2018-11-14T02:32:50.850Z,23.63
2018-11-14T02:35:19.104Z,28.07
2018-11-14T02:37:47.829Z,29.53
2018-11-14T02:40:17.207Z,27.73
2018-11-14T02:42:46.260Z,32.40
2018-11-14T02:45:14.909Z,33.80
2018-11-14T02:47:43.177Z,26.53
2018-11-14T02:50:12.983Z,29.13
2018-11-14T02:52:41.252Z,30.53
2018-11-14T02:55:10.773Z,31.27
2018-11-14T02:57:39.040Z,35.47
2018-11-14T03:00:10.157Z,31.33
2018-11-14T03:02:38.401Z,37.57
2018-11-14T03:05:06.894Z,32.17
2018-11-14T03:07:35.188Z,29.93
2018-11-14T03:10:04.686Z,30.97
2018-11-14T03:12:33.015Z,31.43
2018-11-14T03:15:01.261Z,36.30
2018-11-14T03:17:29.501Z,28.27
2018-11-14T03:19:57.748Z,32.07
2018-11-14T03:22:26.003Z,36.83
2018-11-14T03:24:54.237Z,28.13
2018-11-14T03:27:22.472Z,32.73
2018-11-14T03:29:50.721Z,35.90
2018-11-14T03:32:18.971Z,35.60
2018-11-14T03:34:47.227Z,34.93
2018-11-14T03:37:15.503Z,35.10
2018-11-14T03:39:44.405Z,34.13
2018-11-14T03:42:12.644Z,35.00
2018-11-14T03:44:40.923Z,37.77
2018-11-14T03:47:09.168Z,36.80
2018-11-14T03:49:37.473Z,33.80
2018-11-14T03:52:06.539Z,36.13
2018-11-14T03:54:34.771Z,38.33
2018-11-14T03:57:03.060Z,37.43
2018-11-14T03:59:31.309Z,34.83
2018-11-14T04:01:59.543Z,35.87
2018-11-14T04:04:27.805Z,36.50
2018-11-14T04:06:56.052Z,37.50
2018-11-14T04:09:24.358Z,35.60
2018-11-14T04:11:52.595Z,36.23
2018-11-14T04:14:20.836Z,33.93
2018-11-14T04:16:49.075Z,36.03
2018-11-14T04:19:17.371Z,37.80
2018-11-14T04:21:45.601Z,38.20
2018-11-14T04:24:13.820Z,34.57
2018-11-14T04:26:42.071Z,36.20
2018-11-14T04:29:16.760Z,36.83
2018-11-14T04:31:45.016Z,33.03
2018-11-14T04:34:13.288Z,41.37
2018-11-14T04:36:41.580Z,35.87
2018-11-14T04:39:11.071Z,39.00
2018-11-14T04:41:39.458Z,36.97
2018-11-14T04:44:08.077Z,43.23
2018-11-14T04:46:36.340Z,34.03
2018-11-14T04:49:04.731Z,38.87
2018-11-14T04:51:33.136Z,38.43
2018-11-14T04:54:02.051Z,42.70
2018-11-14T04:56:30.307Z,40.83
2018-11-14T04:58:58.536Z,39.93
2018-11-14T05:01:26.798Z,38.67
2018-11-14T05:03:55.008Z,44.90
2018-11-14T05:06:23.284Z,38.77
2018-11-14T05:08:51.520Z,35.47
2018-11-14T05:11:19.779Z,43.67
2018-11-14T05:13:48.002Z,45.63
2018-11-14T05:16:16.243Z,41.57
2018-11-14T05:18:45.388Z,44.47
2018-11-14T05:21:13.621Z,37.17
2018-11-14T05:23:41.883Z,43.77
2018-11-14T05:26:16.741Z,42.00
2018-11-14T05:28:44.988Z,44.30
2018-11-14T05:31:13.222Z,45.07
2018-11-14T05:33:41.479Z,41.37
2018-11-14T05:36:09.867Z,39.90
2018-11-14T05:38:38.115Z,50.47
2018-11-14T05:41:06.382Z,47.37
2018-11-14T05:43:34.632Z,52.13
2018-11-14T05:46:02.991Z,48.10
2018-11-14T05:48:31.239Z,43.98
2018-11-14T05:51:00.049Z,45.13
2018-11-14T05:53:28.330Z,55.77
2018-11-14T05:55:56.601Z,49.80
2018-11-14T05:58:24.892Z,55.70
2018-11-14T06:00:53.156Z,54.93
2018-11-14T06:03:21.435Z,60.90
2018-11-14T06:05:49.709Z,55.00
2018-11-14T06:08:17.962Z,55.23
2018-11-14T06:10:46.204Z,61.77
2018-11-14T06:13:15.080Z,47.57
2018-11-14T06:15:43.311Z,57.20
2018-11-14T06:18:11.516Z,59.20
2018-11-14T06:20:39.765Z,67.30
2018-11-14T06:23:08.050Z,44.63
2018-11-14T06:25:37.438Z,67.07
2018-11-14T06:28:07.168Z,67.07
2018-11-14T06:30:36.165Z,54.53
2018-11-14T06:33:05.484Z,47.40
2018-11-14T06:35:33.769Z,62.57
2018-11-14T06:38:02.086Z,56.07
2018-11-14T06:40:30.564Z,67.97
2018-11-14T06:42:58.816Z,59.47
2018-11-14T06:45:28.377Z,72.90
2018-11-14T06:47:57.792Z,61.07
2018-11-14T06:50:26.094Z,56.47
2018-11-14T06:52:55.944Z,58.83
2018-11-14T06:55:24.192Z,51.47
2018-11-14T06:57:52.459Z,59.43
2018-11-14T07:00:26.002Z,58.60
2018-11-14T07:02:55.008Z,50.07
2018-11-14T07:05:23.312Z,64.77
2018-11-14T07:07:51.487Z,54.50
2018-11-14T07:10:21.449Z,51.40
2018-11-14T07:12:49.665Z,52.03
2018-11-14T07:15:20.001Z,58.60
2018-11-14T07:17:49.166Z,60.80
2018-11-14T07:20:21.897Z,57.40
2018-11-14T07:22:50.151Z,68.17
2018-11-14T07:25:18.409Z,64.43
2018-11-14T07:27:46.809Z,51.63
2018-11-14T07:30:16.968Z,63.60
2018-11-14T07:32:46.568Z,54.77
2018-11-14T07:35:15.567Z,50.80
2018-11-14T07:37:51.735Z,52.23
2018-11-14T07:40:19.969Z,62.10
2018-11-14T07:42:48.168Z,58.43
2018-11-14T07:45:16.725Z,62.80
2018-11-14T07:47:44.940Z,51.97
2018-11-14T07:50:15.232Z,64.33
2018-11-14T07:52:44.284Z,49.20
2018-11-14T07:55:12.917Z,61.37
2018-11-14T07:57:41.203Z,53.57
2018-11-14T08:00:16.095Z,51.77
2018-11-14T08:02:44.439Z,53.63
2018-11-14T08:05:12.874Z,54.80
2018-11-14T08:07:41.187Z,56.37
2018-11-14T08:10:11.066Z,64.00
2018-11-14T08:12:39.284Z,59.47
2018-11-14T08:15:08.584Z,55.60
2018-11-14T08:17:37.080Z,54.70
2018-11-14T08:20:08.444Z,52.73
2018-11-14T08:22:36.668Z,57.00
2018-11-14T08:25:05.157Z,54.20
2018-11-14T08:27:33.444Z,54.17
2018-11-14T08:30:01.732Z,58.07
2018-11-14T08:32:30.001Z,55.53
2018-11-14T08:34:58.272Z,56.90
2018-11-14T08:37:26.630Z,56.87
2018-11-14T08:39:54.905Z,52.47
2018-11-14T08:42:23.172Z,69.17
2018-11-14T08:44:51.988Z,64.37
2018-11-14T08:47:20.244Z,58.83
2018-11-14T08:49:48.511Z,58.30
2018-11-14T08:52:16.783Z,53.77
2018-11-14T08:54:45.032Z,65.87
2018-11-14T08:57:13.299Z,60.63
2018-11-14T08:59:41.704Z,54.57
2018-11-14T09:02:10.068Z,58.43
2018-11-14T09:04:38.339Z,61.83
2018-11-14T09:07:06.597Z,61.70
2018-11-14T09:09:34.816Z,55.90
2018-11-14T09:12:03.074Z,64.23
2018-11-14T09:14:31.420Z,66.60
2018-11-14T09:16:59.617Z,61.00
2018-11-14T09:19:27.944Z,70.37
2018-11-14T09:21:56.245Z,58.53
2018-11-14T09:24:24.488Z,59.20
2018-11-14T09:26:52.748Z,54.37
2018-11-14T09:29:20.987Z,66.83
2018-11-14T09:31:49.230Z,56.30
2018-11-14T09:34:17.496Z,61.77
2018-11-14T09:36:45.736Z,60.70
2018-11-14T09:39:14.011Z,60.47
2018-11-14T09:41:42.288Z,53.03
2018-11-14T09:44:10.505Z,47.80
2018-11-14T09:46:38.789Z,47.93
2018-11-14T09:49:07.052Z,44.27
2018-11-14T09:51:35.628Z,42.10
2018-11-14T09:54:04.085Z,42.13
2018-11-14T09:56:32.416Z,40.13
2018-11-14T09:59:00.785Z,43.00
2018-11-14T10:01:29.039Z,40.20
2018-11-14T10:03:57.337Z,45.80
2018-11-14T10:06:25.640Z,41.10
2018-11-14T10:08:54.831Z,42.10
2018-11-14T10:11:23.058Z,44.57
2018-11-14T10:13:51.305Z,48.47
2018-11-14T10:16:19.659Z,46.43
2018-11-14T10:18:47.897Z,43.23
2018-11-14T10:21:16.212Z,36.60
2018-11-14T10:23:44.395Z,38.73
2018-11-14T10:26:13.084Z,37.00
2018-11-14T10:28:41.344Z,39.17
2018-11-14T10:31:09.611Z,45.03
2018-11-14T10:33:37.905Z,39.90
2018-11-14T10:36:06.150Z,44.23
2018-11-14T10:38:34.419Z,41.90
2018-11-14T10:41:02.673Z,39.40
2018-11-14T10:43:30.891Z,38.00
2018-11-14T10:45:59.128Z,37.07
2018-11-14T10:48:27.412Z,33.93
2018-11-14T10:50:55.860Z,34.67
2018-11-14T10:53:24.028Z,35.23
2018-11-14T10:55:52.302Z,37.53
2018-11-14T10:58:20.591Z,37.33
2018-11-14T11:00:53.100Z,40.83
2018-11-14T11:03:26.764Z,38.40
2018-11-14T11:06:00.351Z,36.80
2018-11-14T11:08:34.039Z,35.83
2018-11-14T11:11:07.861Z,39.43
2018-11-14T11:13:41.588Z,39.40
2018-11-14T11:16:15.308Z,39.73
2018-11-14T11:18:50.086Z,34.23
2018-11-14T11:21:18.317Z,34.60
2018-11-14T11:23:46.600Z,35.80
2018-11-14T11:26:14.894Z,39.70
2018-11-14T11:28:43.842Z,39.17
2018-11-14T11:31:12.064Z,34.00
2018-11-14T11:33:40.296Z,35.67
2018-11-14T11:36:08.563Z,37.70
2018-11-14T11:38:36.804Z,39.73
2018-11-14T11:41:05.187Z,41.53
2018-11-14T11:43:33.443Z,38.43
2018-11-14T11:46:02.072Z,36.20
2018-11-14T11:48:30.321Z,36.47
2018-11-14T11:50:59.190Z,34.43
2018-11-14T11:53:27.516Z,36.70
2018-11-14T11:55:55.782Z,39.00
2018-11-14T11:58:24.050Z,42.43
2018-11-14T12:00:52.330Z,34.63
2018-11-14T12:03:20.524Z,37.90
2018-11-14T12:05:48.823Z,39.60
2018-11-14T12:08:17.061Z,38.33
2018-11-14T12:10:45.333Z,37.67
2018-11-14T12:13:13.626Z,37.63
2018-11-14T12:15:41.851Z,43.17
2018-11-14T12:18:10.056Z,37.10
2018-11-14T12:20:38.319Z,42.97
2018-11-14T12:23:06.675Z,38.20
2018-11-14T12:25:34.932Z,41.27
2018-11-14T12:28:03.303Z,39.27
2018-11-14T12:30:31.632Z,41.93
2018-11-14T12:32:59.842Z,43.97
2018-11-14T12:35:28.274Z,43.57
2018-11-14T12:37:56.548Z,41.33
2018-11-14T12:40:24.856Z,45.47
2018-11-14T12:42:53.256Z,45.80
2018-11-14T12:45:21.488Z,44.10
2018-11-14T12:47:49.765Z,43.73
2018-11-14T12:50:18.024Z,52.07
2018-11-14T12:52:46.314Z,47.00
2018-11-14T12:55:17.649Z,44.83
2018-11-14T12:57:45.928Z,47.90
2018-11-14T13:00:15.461Z,51.80
2018-11-14T13:02:43.747Z,50.03
2018-11-14T13:05:13.176Z,53.90
2018-11-14T13:07:41.644Z,46.50
2018-11-14T13:10:11.239Z,49.90
2018-11-14T13:12:39.499Z,47.53
2018-11-14T13:15:08.943Z,53.77
2018-11-14T13:17:37.187Z,50.43
2018-11-14T13:20:07.902Z,52.33
2018-11-14T13:22:36.166Z,54.27
2018-11-14T13:25:05.468Z,55.33
2018-11-14T13:27:33.758Z,49.70
2018-11-14T13:30:02.029Z,51.33
2018-11-14T13:32:30.293Z,46.43
2018-11-14T13:34:58.608Z,47.10
2018-11-14T13:37:27.124Z,47.00
2018-11-14T13:39:55.432Z,50.60
2018-11-14T13:42:23.716Z,48.73
2018-11-14T13:44:51.985Z,47.97
2018-11-14T13:47:20.255Z,46.40
2018-11-14T13:49:48.702Z,48.27
2018-11-14T13:52:16.849Z,47.50
2018-11-14T13:54:45.124Z,46.17
2018-11-14T13:57:13.412Z,46.17
2018-11-14T13:59:41.652Z,45.83
2018-11-14T14:02:09.896Z,46.20
2018-11-14T14:04:38.157Z,47.17
2018-11-14T14:07:06.471Z,44.03
2018-11-14T14:09:34.987Z,42.33
2018-11-14T14:12:03.208Z,48.03
2018-11-14T14:14:31.497Z,46.50
2018-11-14T14:16:59.732Z,47.10
2018-11-14T14:19:28.016Z,43.63
2018-11-14T14:21:56.280Z,46.67
2018-11-14T14:24:24.583Z,42.33
2018-11-14T14:26:52.855Z,43.20
2018-11-14T14:29:22.049Z,43.23
2018-11-14T14:31:50.344Z,41.77
2018-11-14T14:34:18.639Z,42.00
2018-11-14T14:36:46.940Z,41.83
2018-11-14T14:39:15.214Z,45.53
2018-11-14T14:41:43.498Z,40.87
2018-11-14T14:44:11.788Z,36.10
2018-11-14T14:46:40.380Z,42.10
2018-11-14T14:49:09.067Z,39.00
2018-11-14T14:51:37.326Z,42.63
2018-11-14T14:54:05.592Z,35.80
2018-11-14T14:56:33.949Z,40.37
2018-11-14T14:59:02.126Z,38.93
2018-11-14T15:01:30.400Z,37.53
2018-11-14T15:03:58.698Z,34.77
2018-11-14T15:06:26.976Z,36.80
2018-11-14T15:08:55.247Z,31.25
2018-11-14T15:11:23.498Z,32.87
2018-11-14T15:13:51.773Z,31.90
2018-11-14T15:16:20.216Z,29.03
2018-11-14T15:18:48.537Z,27.03
2018-11-14T15:21:16.778Z,27.83
2018-11-14T15:23:45.041Z,27.07
2018-11-14T15:26:13.329Z,23.33
2018-11-14T15:28:41.647Z,24.27
2018-11-14T15:31:09.935Z,24.70
2018-11-14T15:33:38.232Z,23.73
2018-11-14T15:36:06.667Z,25.40
2018-11-14T15:38:34.881Z,27.03
2018-11-14T15:41:03.176Z,27.97
2018-11-14T15:43:31.489Z,24.65
2018-11-14T15:45:59.743Z,24.40
2018-11-14T15:48:28.028Z,23.67
2018-11-14T15:50:56.329Z,21.43
2018-11-14T15:53:24.600Z,21.30
2018-11-14T15:55:52.912Z,25.20
2018-11-14T15:58:21.233Z,23.33
2018-11-14T16:00:49.542Z,19.30
2018-11-14T16:03:17.911Z,19.53
2018-11-14T16:05:46.336Z,22.83
2018-11-14T16:08:14.564Z,20.03
2018-11-14T16:10:42.858Z,20.23
2018-11-14T16:13:11.177Z,23.00
2018-11-14T16:15:39.717Z,20.87
2018-11-14T16:18:08.062Z,19.37
2018-11-14T16:20:36.436Z,24.73
2018-11-14T16:23:04.760Z,21.37
2018-11-14T16:25:33.076Z,24.17
2018-11-14T16:28:02.032Z,20.43
2018-11-14T16:30:38.193Z,21.13
2018-11-14T16:33:07.789Z,22.20
2018-11-14T16:35:36.105Z,18.80
2018-11-14T16:38:04.584Z,20.47
2018-11-14T16:40:33.969Z,19.10
2018-11-14T16:43:03.788Z,24.13
2018-11-14T16:45:32.153Z,22.90
2018-11-14T16:48:00.577Z,23.83
2018-11-14T16:50:30.422Z,18.57
2018-11-14T16:52:58.817Z,22.40
2018-11-14T16:55:28.582Z,27.87
2018-11-14T16:57:57.372Z,17.57
2018-11-14T17:00:28.245Z,16.70
2018-11-14T17:02:56.587Z,18.27
2018-11-14T17:05:25.900Z,20.50
2018-11-14T17:07:55.341Z,18.67
2018-11-14T17:10:24.788Z,17.67
2018-11-14T17:12:54.528Z,18.30
2018-11-14T17:15:23.965Z,19.27
2018-11-14T17:17:52.397Z,20.37
2018-11-14T17:20:22.309Z,18.33
2018-11-14T17:22:52.307Z,20.57
2018-11-14T17:25:21.687Z,19.50
2018-11-14T17:27:50.113Z,22.33
2018-11-14T17:30:20.421Z,24.30
2018-11-14T17:32:48.966Z,22.03
2018-11-14T17:35:18.202Z,17.83
2018-11-14T17:37:47.939Z,15.50
2018-11-14T17:40:21.413Z,17.03
2018-11-14T17:42:50.747Z,18.67
2018-11-14T17:45:20.932Z,19.33
2018-11-14T17:47:50.647Z,17.63
2018-11-14T17:50:21.438Z,16.67
2018-11-14T17:52:50.725Z,15.63
2018-11-14T17:55:20.220Z,18.40
2018-11-14T17:57:48.562Z,16.50
2018-11-14T18:00:19.593Z,19.83
2018-11-14T18:02:48.077Z,20.30
2018-11-14T18:05:17.576Z,17.40
2018-11-14T18:07:46.615Z,18.17
2018-11-14T18:10:16.543Z,16.27
2018-11-14T18:12:47.184Z,16.50
2018-11-14T18:15:15.553Z,19.63
2018-11-14T18:17:44.758Z,19.77
2018-11-14T18:20:16.756Z,15.57
2018-11-14T18:22:45.848Z,15.90
2018-11-14T18:25:14.852Z,14.43
2018-11-14T18:27:43.510Z,14.03
2018-11-14T18:30:15.847Z,15.70
2018-11-14T18:32:44.275Z,16.57
2018-11-14T18:35:14.437Z,15.80
2018-11-14T18:37:44.670Z,17.43
2018-11-14T18:40:15.024Z,13.30
2018-11-14T18:42:43.656Z,15.37
2018-11-14T18:45:22.357Z,17.60
2018-11-14T18:47:50.771Z,20.70
2018-11-14T18:50:19.804Z,20.47
2018-11-14T18:52:48.610Z,14.40
2018-11-14T18:55:18.464Z,15.57
2018-11-14T18:57:47.006Z,17.60
2018-11-14T19:00:18.396Z,15.27
2018-11-14T19:02:46.743Z,17.07
2018-11-14T19:05:15.813Z,15.53
2018-11-14T19:07:46.530Z,15.30
2018-11-14T19:10:17.070Z,21.80
2018-11-14T19:12:46.139Z,16.77
2018-11-14T19:15:16.435Z,18.73
2018-11-14T19:17:45.272Z,17.40
2018-11-14T19:20:14.744Z,17.67
2018-11-14T19:22:43.441Z,20.87
2018-11-14T19:25:16.027Z,18.10
2018-11-14T19:27:45.928Z,20.00
2018-11-14T19:30:16.746Z,17.00
2018-11-14T19:32:47.085Z,14.77
2018-11-14T19:35:15.861Z,17.50
2018-11-14T19:37:45.375Z,14.23
2018-11-14T19:40:15.414Z,14.13
2018-11-14T19:42:44.410Z,20.20
2018-11-14T19:45:15.744Z,17.87
2018-11-14T19:47:45.094Z,18.47
2018-11-14T19:50:17.360Z,16.87
2018-11-14T19:52:46.139Z,15.73
2018-11-14T19:55:15.829Z,18.63
2018-11-14T19:57:45.865Z,18.67
2018-11-14T20:00:19.867Z,15.33
2018-11-14T20:02:49.262Z,20.57
2018-11-14T20:05:18.739Z,16.07
2018-11-14T20:07:47.100Z,16.50
2018-11-14T20:10:19.406Z,13.63
2018-11-14T20:12:48.293Z,16.40
2018-11-14T20:15:18.982Z,15.40
2018-11-14T20:17:48.039Z,20.73
2018-11-14T20:20:18.178Z,19.73
2018-11-14T20:22:46.707Z,19.37
2018-11-14T20:25:15.219Z,19.37
2018-11-14T20:27:43.874Z,18.63
2018-11-14T20:30:15.311Z,20.40
2018-11-14T20:32:45.268Z,17.77
2018-11-14T20:35:17.276Z,16.57
2018-11-14T20:37:50.359Z,15.83
2018-11-14T20:40:20.444Z,17.40
2018-11-14T20:42:51.325Z,16.47
2018-11-14T20:45:27.973Z,14.13
2018-11-14T20:47:57.625Z,16.50
2018-11-14T20:50:26.658Z,16.67
2018-11-14T20:52:57.726Z,15.53
2018-11-14T20:55:26.029Z,14.23
2018-11-14T20:57:54.534Z,15.87
2018-11-14T21:00:28.330Z,16.50
2018-11-14T21:02:56.906Z,18.23
2018-11-14T21:05:25.829Z,18.20
2018-11-14T21:07:54.284Z,15.87
2018-11-14T21:10:27.344Z,15.50
2018-11-14T21:12:56.371Z,18.07
2018-11-14T21:15:29.438Z,17.80
2018-11-14T21:17:58.784Z,16.30
2018-11-14T21:20:27.289Z,14.33
2018-11-14T21:22:55.775Z,13.77
2018-11-14T21:25:24.823Z,13.37
2018-11-14T21:27:53.821Z,16.37
2018-11-14T21:30:23.880Z,14.77
2018-11-14T21:32:52.218Z,14.57
2018-11-14T21:35:22.932Z,17.17
2018-11-14T21:37:52.697Z,15.27
2018-11-14T21:40:21.673Z,15.83
2018-11-14T21:42:49.985Z,17.87
2018-11-14T21:45:19.635Z,15.60
2018-11-14T21:47:53.425Z,13.87
2018-11-14T21:50:22.836Z,12.13
2018-11-14T21:52:51.114Z,17.40
2018-11-14T21:55:19.385Z,13.10
2018-11-14T21:57:48.018Z,12.87
2018-11-14T22:00:19.074Z,13.63
2018-11-14T22:02:48.688Z,13.53
2018-11-14T22:05:17.020Z,17.73
2018-11-14T22:07:45.321Z,11.90
2018-11-14T22:10:16.337Z,20.43
2018-11-14T22:12:45.072Z,16.17
2018-11-14T22:15:14.174Z,13.80
2018-11-14T22:17:42.481Z,13.83
2018-11-14T22:20:13.720Z,16.57
2018-11-14T22:22:43.693Z,11.33
2018-11-14T22:25:13.165Z,14.47
2018-11-14T22:27:41.455Z,14.53
2018-11-14T22:30:17.499Z,15.13
2018-11-14T22:32:45.808Z,12.77
2018-11-14T22:35:15.484Z,13.73
2018-11-14T22:37:43.954Z,16.30
2018-11-14T22:40:14.237Z,11.33
2018-11-14T22:42:42.859Z,13.53
2018-11-14T22:45:13.503Z,13.37
2018-11-14T22:47:42.364Z,17.17
2018-11-14T22:50:12.065Z,13.43
2018-11-14T22:52:41.323Z,12.77
2018-11-14T22:55:10.640Z,16.67
2018-11-14T22:57:38.918Z,13.73
2018-11-14T23:00:26.940Z,11.37
2018-11-14T23:02:56.466Z,14.53
2018-11-14T23:05:24.703Z,15.57
2018-11-14T23:07:53.859Z,13.33
2018-11-14T23:10:22.836Z,12.77
2018-11-14T23:12:51.309Z,12.57
2018-11-14T23:15:20.161Z,12.67
2018-11-14T23:17:48.496Z,17.93
2018-11-14T23:20:17.227Z,11.43
2018-11-14T23:22:46.118Z,12.80
2018-11-14T23:25:14.889Z,11.07
2018-11-14T23:27:44.210Z,10.23
2018-11-14T23:30:13.434Z,12.90
2018-11-14T23:32:43.029Z,10.90
2018-11-14T23:35:18.345Z,11.97
2018-11-14T23:37:48.902Z,12.20
2018-11-14T23:40:17.118Z,11.90
2018-11-14T23:42:45.318Z,10.77
2018-11-14T23:45:14.537Z,13.60
2018-11-14T23:47:43.600Z,10.03
2018-11-14T23:50:15.391Z,11.33
2018-11-14T23:52:44.965Z,14.23
2018-11-14T23:55:13.473Z,10.83
2018-11-14T23:57:41.677Z,13.33
